createdAt,value
2019-05-07T00:01:54.819Z,386.10
2019-05-07T00:04:22.491Z,409.27
2019-05-07T00:06:52.152Z,359.13
2019-05-07T00:09:19.758Z,414.53
2019-05-07T00:11:48.569Z,380.37
2019-05-07T00:14:16.097Z,438.50
2019-05-07T00:16:43.568Z,367.97
2019-05-07T00:19:12.895Z,420.30
2019-05-07T00:24:51.996Z,418.67
2019-05-07T00:27:19.028Z,410.47
2019-05-07T00:29:46.684Z,435.00
2019-05-07T00:32:14.080Z,414.40
2019-05-07T00:34:46.371Z,405.93
2019-05-07T00:37:22.051Z,392.53
2019-05-07T00:40:19.018Z,441.70
2019-05-07T00:43:22.702Z,389.00
2019-05-07T00:46:12.988Z,432.10
2019-05-07T00:48:42.245Z,392.60
2019-05-07T00:51:30.199Z,380.30
2019-05-07T00:53:58.854Z,373.70
2019-05-07T00:56:26.396Z,377.63
2019-05-07T00:58:53.986Z,397.00
2019-05-07T01:01:22.725Z,392.80
2019-05-07T01:03:50.391Z,363.67
2019-05-07T01:06:18.307Z,386.27
2019-05-07T01:08:45.756Z,394.10
2019-05-07T01:11:13.319Z,404.33
2019-05-07T01:13:43.111Z,392.87
2019-05-07T01:16:12.742Z,386.90
2019-05-07T01:18:42.113Z,354.97
2019-05-07T01:21:09.638Z,382.60
2019-05-07T01:23:37.234Z,376.90
2019-05-07T01:26:04.818Z,360.87
2019-05-07T01:28:52.863Z,361.07
2019-05-07T01:31:22.221Z,402.93
2019-05-07T01:33:56.822Z,375.47
2019-05-07T01:36:24.478Z,401.87
2019-05-07T01:38:52.299Z,396.10
2019-05-07T01:41:19.753Z,354.17
2019-05-07T01:43:47.153Z,383.10
2019-05-07T01:46:14.760Z,376.90
2019-05-07T01:48:42.958Z,370.23
2019-05-07T01:51:12.679Z,401.37
2019-05-07T01:53:39.677Z,392.33
2019-05-07T01:56:07.237Z,346.90
2019-05-07T01:58:34.581Z,377.43
2019-05-07T02:01:02.765Z,396.37
2019-05-07T02:03:48.014Z,371.13
2019-05-07T02:06:24.237Z,386.07
2019-05-07T02:09:03.533Z,348.30
2019-05-07T02:11:37.886Z,372.63
2019-05-07T02:14:06.235Z,384.87
2019-05-07T02:16:33.649Z,368.37
2019-05-07T02:19:02.141Z,384.37
2019-05-07T02:21:30.333Z,349.63
2019-05-07T02:23:57.796Z,364.93
2019-05-07T02:26:25.322Z,370.40
2019-05-07T02:28:52.639Z,389.40
2019-05-07T02:31:22.970Z,429.77
2019-05-07T02:33:49.572Z,410.17
2019-05-07T02:36:16.900Z,368.27
2019-05-07T02:38:52.819Z,395.00
2019-05-07T02:41:25.939Z,403.13
2019-05-07T02:43:53.894Z,379.57
2019-05-07T02:46:52.580Z,357.93
2019-05-07T02:49:25.104Z,425.20
2019-05-07T02:51:58.667Z,342.63
2019-05-07T02:54:47.735Z,404.67
2019-05-07T02:57:17.030Z,361.60
2019-05-07T02:59:44.884Z,413.37
2019-05-07T03:02:13.893Z,355.67
2019-05-07T03:04:43.596Z,414.30
2019-05-07T03:07:13.206Z,359.60
2019-05-07T03:09:43.116Z,412.57
2019-05-07T03:12:13.193Z,375.23
2019-05-07T03:14:43.841Z,376.97
2019-05-07T03:17:13.301Z,360.07
2019-05-07T03:19:43.410Z,391.73
2019-05-07T03:22:13.988Z,370.00
2019-05-07T03:25:05.720Z,391.97
2019-05-07T03:27:34.041Z,344.03
2019-05-07T03:30:16.747Z,364.27
2019-05-07T03:32:56.266Z,365.27
2019-05-07T03:35:36.999Z,391.60
2019-05-07T03:38:03.458Z,320.87
2019-05-07T03:40:33.055Z,343.30
2019-05-07T03:43:04.869Z,329.73
2019-05-07T03:45:37.945Z,372.50
2019-05-07T03:48:13.529Z,345.30
2019-05-07T03:50:43.195Z,365.97
2019-05-07T03:53:13.854Z,367.53
2019-05-07T03:55:40.156Z,339.97
2019-05-07T03:58:07.717Z,400.60
2019-05-07T04:00:36.227Z,355.30
2019-05-07T04:03:03.837Z,346.90
2019-05-07T04:05:33.872Z,351.40
2019-05-07T04:08:03.321Z,349.93
2019-05-07T04:10:33.441Z,346.73
2019-05-07T04:12:59.928Z,327.20
2019-05-07T04:15:27.228Z,351.43
2019-05-07T04:17:54.663Z,338.60
2019-05-07T04:20:23.980Z,317.33
2019-05-07T04:22:53.523Z,356.37
2019-05-07T04:25:46.848Z,370.10
2019-05-07T04:28:24.254Z,331.93
2019-05-07T04:30:53.262Z,359.97
2019-05-07T04:33:23.824Z,335.87
2019-05-07T04:36:16.773Z,339.43
2019-05-07T04:38:44.702Z,333.10
2019-05-07T04:41:13.819Z,358.73
2019-05-07T04:43:43.528Z,366.33
2019-05-07T04:46:14.078Z,339.67
2019-05-07T04:48:43.538Z,365.67
2019-05-07T04:51:12.620Z,366.73
2019-05-07T04:53:42.923Z,340.53
2019-05-07T04:56:13.850Z,373.43
2019-05-07T04:58:43.064Z,340.13
2019-05-07T05:01:13.799Z,338.30
2019-05-07T05:03:43.460Z,372.03
2019-05-07T05:06:13.580Z,365.57
2019-05-07T05:08:43.258Z,344.70
2019-05-07T05:11:12.546Z,342.77
2019-05-07T05:13:39.238Z,360.43
2019-05-07T05:16:25.851Z,318.90
2019-05-07T05:18:55.251Z,353.47
2019-05-07T05:21:37.897Z,349.07
2019-05-07T05:24:19.240Z,362.53
2019-05-07T05:26:46.803Z,330.27
2019-05-07T05:29:14.808Z,370.70
2019-05-07T05:31:42.440Z,359.97
2019-05-07T05:34:10.206Z,402.93
2019-05-07T05:36:38.820Z,335.07
2019-05-07T05:39:07.379Z,387.60
2019-05-07T05:41:37.885Z,363.90
2019-05-07T05:44:09.079Z,411.23
2019-05-07T05:46:36.503Z,340.20
2019-05-07T05:49:04.097Z,378.70
2019-05-07T05:51:46.501Z,367.03
2019-05-07T05:54:31.959Z,397.23
2019-05-07T05:57:06.935Z,381.43
2019-05-07T05:59:56.749Z,391.10
2019-05-07T06:02:53.287Z,359.50
2019-05-07T06:05:43.361Z,384.13
2019-05-07T06:08:32.312Z,365.27
2019-05-07T06:11:08.196Z,391.33
2019-05-07T06:13:45.450Z,347.70
2019-05-07T06:16:15.875Z,356.37
2019-05-07T06:19:02.013Z,387.97
2019-05-07T06:21:49.335Z,356.93
2019-05-07T06:24:22.652Z,438.00
2019-05-07T06:26:52.146Z,351.63
2019-05-07T06:29:20.298Z,384.83
2019-05-07T06:32:02.630Z,376.37
2019-05-07T06:34:30.165Z,393.63
2019-05-07T06:36:57.493Z,338.57
2019-05-07T06:39:28.672Z,375.13
2019-05-07T06:42:14.432Z,328.77
2019-05-07T06:44:42.742Z,399.30
2019-05-07T06:47:12.953Z,378.60
2019-05-07T06:49:42.740Z,393.53
2019-05-07T06:52:12.248Z,359.73
2019-05-07T06:54:42.744Z,381.87
2019-05-07T06:57:10.087Z,342.43
2019-05-07T06:59:46.005Z,382.67
2019-05-07T07:02:52.449Z,338.10
2019-05-07T07:05:38.230Z,358.40
2019-05-07T07:08:13.207Z,319.60
2019-05-07T07:10:58.652Z,342.97
2019-05-07T07:13:28.014Z,349.93
2019-05-07T07:15:55.529Z,344.53
2019-05-07T07:18:23.224Z,342.17
2019-05-07T07:20:52.417Z,364.73
2019-05-07T07:23:19.973Z,339.37
2019-05-07T07:25:47.396Z,310.70
2019-05-07T07:28:14.702Z,365.47
2019-05-07T07:31:02.331Z,328.73
2019-05-07T07:33:32.096Z,278.37
2019-05-07T07:35:59.712Z,267.53
2019-05-07T07:38:33.224Z,249.60
2019-05-07T07:41:05.950Z,264.77
2019-05-07T07:43:33.229Z,269.80
2019-05-07T07:46:02.252Z,275.90
2019-05-07T07:48:31.918Z,276.20
2019-05-07T07:50:59.589Z,244.53
2019-05-07T07:53:26.941Z,259.83
2019-05-07T07:56:12.770Z,281.53
2019-05-07T07:59:12.664Z,277.30
2019-05-07T08:02:01.828Z,266.63
2019-05-07T08:04:29.273Z,327.50
2019-05-07T08:07:03.005Z,274.00
2019-05-07T08:09:32.458Z,324.17
2019-05-07T08:12:02.601Z,259.73
2019-05-07T08:14:32.466Z,302.47
2019-05-07T08:17:02.235Z,256.63
2019-05-07T08:19:32.519Z,291.43
2019-05-07T08:21:59.141Z,285.73
2019-05-07T08:24:26.960Z,301.20
2019-05-07T08:26:55.177Z,260.93
2019-05-07T08:29:23.269Z,317.87
2019-05-07T08:32:12.513Z,245.13
2019-05-07T08:34:47.573Z,330.40
2019-05-07T08:37:16.050Z,260.23
2019-05-07T08:39:44.231Z,295.67
2019-05-07T08:42:12.343Z,286.17
2019-05-07T08:44:46.572Z,289.27
2019-05-07T08:47:42.513Z,281.07
2019-05-07T08:50:11.826Z,280.67
2019-05-07T08:52:41.842Z,247.57
2019-05-07T08:55:12.563Z,292.40
2019-05-07T08:57:42.044Z,289.70
2019-05-07T09:00:12.356Z,289.10
2019-05-07T09:02:41.913Z,288.40
2019-05-07T09:05:11.797Z,298.30
2019-05-07T09:07:39.257Z,289.90
2019-05-07T09:10:06.745Z,295.23
2019-05-07T09:12:35.050Z,285.63
2019-05-07T09:15:02.941Z,336.63
2019-05-07T09:17:31.830Z,277.90
2019-05-07T09:19:59.504Z,309.33
2019-05-07T09:22:27.018Z,286.10
2019-05-07T09:24:54.787Z,335.90
2019-05-07T09:27:37.924Z,276.70
2019-05-07T09:30:24.321Z,307.57
2019-05-07T09:32:56.085Z,316.60
2019-05-07T09:35:28.104Z,299.93
2019-05-07T09:37:56.422Z,296.23
2019-05-07T09:40:23.811Z,326.00
2019-05-07T09:42:52.611Z,323.27
2019-05-07T09:45:22.308Z,254.10
2019-05-07T09:47:49.670Z,277.23
2019-05-07T09:50:17.349Z,291.17
2019-05-07T09:52:44.901Z,279.47
2019-05-07T09:55:17.249Z,281.77
2019-05-07T09:57:45.729Z,285.67
2019-05-07T10:00:13.927Z,294.93
2019-05-07T10:02:42.489Z,298.37
2019-05-07T10:05:10.595Z,296.50
2019-05-07T10:07:38.115Z,285.10
2019-05-07T10:10:06.183Z,273.93
2019-05-07T10:12:39.144Z,291.47
2019-05-07T10:15:07.354Z,323.10
2019-05-07T10:17:46.253Z,300.97
2019-05-07T10:20:21.794Z,309.50
2019-05-07T10:22:45.179Z,286.97
2019-05-07T10:25:12.878Z,283.97
2019-05-07T10:27:41.817Z,278.90
2019-05-07T10:30:09.586Z,327.43
2019-05-07T10:32:37.114Z,331.47
2019-05-07T10:35:04.936Z,307.77
2019-05-07T10:37:32.348Z,287.20
2019-05-07T10:40:00.037Z,258.70
2019-05-07T10:42:27.618Z,276.70
2019-05-07T10:45:06.414Z,302.80
2019-05-07T10:47:57.532Z,301.13
2019-05-07T10:50:37.973Z,261.60
2019-05-07T10:52:56.709Z,304.40
2019-05-07T10:55:24.246Z,307.80
2019-05-07T10:57:52.901Z,288.30
2019-05-07T11:00:24.507Z,313.30
2019-05-07T11:02:52.189Z,305.53
2019-05-07T11:05:21.976Z,285.87
2019-05-07T11:07:49.568Z,242.43
2019-05-07T11:10:17.484Z,332.57
2019-05-07T11:12:44.887Z,260.47
2019-05-07T11:15:12.837Z,284.50
2019-05-07T11:17:55.831Z,269.47
2019-05-07T11:20:23.319Z,272.03
2019-05-07T11:22:52.192Z,305.80
2019-05-07T11:25:22.365Z,313.60
2019-05-07T11:27:49.502Z,266.33
2019-05-07T11:30:18.329Z,315.23
2019-05-07T11:32:45.744Z,303.37
2019-05-07T11:35:14.761Z,323.67
2019-05-07T11:37:44.264Z,301.70
2019-05-07T11:40:13.167Z,316.73
2019-05-07T11:43:15.490Z,295.67
2019-05-07T11:45:54.363Z,268.10
2019-05-07T11:48:22.813Z,285.37
2019-05-07T11:51:04.322Z,314.87
2019-05-07T11:53:32.676Z,273.60
2019-05-07T11:56:02.352Z,298.53
2019-05-07T11:58:29.561Z,262.20
2019-05-07T12:01:03.878Z,279.63
2019-05-07T12:03:32.473Z,342.87
2019-05-07T12:06:01.864Z,318.03
2019-05-07T12:08:39.429Z,292.27
2019-05-07T12:10:58.557Z,283.47
2019-05-07T12:13:25.907Z,296.60
2019-05-07T12:15:53.384Z,314.17
2019-05-07T12:18:22.689Z,304.43
2019-05-07T12:20:53.877Z,288.43
2019-05-07T12:23:22.573Z,297.87
2019-05-07T12:25:50.179Z,294.40
2019-05-07T12:28:17.688Z,296.97
2019-05-07T12:31:19.978Z,296.53
2019-05-07T12:33:52.168Z,307.80
2019-05-07T12:36:19.862Z,283.00
2019-05-07T12:38:47.287Z,300.97
2019-05-07T12:41:33.734Z,317.47
2019-05-07T12:44:04.497Z,334.57
2019-05-07T12:46:33.519Z,311.27
2019-05-07T12:49:05.457Z,346.00
2019-05-07T12:51:43.241Z,318.07
2019-05-07T12:54:26.411Z,360.33
2019-05-07T12:56:54.359Z,312.87
2019-05-07T12:59:23.815Z,361.63
2019-05-07T13:02:16.011Z,330.93
2019-05-07T13:04:32.596Z,358.93
2019-05-07T13:07:28.812Z,342.93
2019-05-07T13:09:56.181Z,338.37
2019-05-07T13:12:24.288Z,293.97
2019-05-07T13:14:52.266Z,362.93
2019-05-07T13:17:22.259Z,337.60
2019-05-07T13:19:49.424Z,356.97
2019-05-07T13:22:17.084Z,330.43
2019-05-07T13:24:45.741Z,363.27
2019-05-07T13:27:14.506Z,306.00
2019-05-07T13:29:44.903Z,388.10
2019-05-07T13:32:14.078Z,340.23
2019-05-07T13:34:42.680Z,371.93
2019-05-07T13:37:16.490Z,353.67
2019-05-07T13:39:52.036Z,361.53
2019-05-07T13:42:39.024Z,309.83
2019-05-07T13:45:45.562Z,319.90
2019-05-07T13:48:18.200Z,345.10
2019-05-07T13:50:46.899Z,357.17
2019-05-07T13:53:16.754Z,388.73
2019-05-07T13:55:44.579Z,350.97
2019-05-07T13:58:14.329Z,315.70
2019-05-07T14:00:52.565Z,354.57
2019-05-07T14:03:20.196Z,359.07
2019-05-07T14:05:47.644Z,345.87
2019-05-07T14:08:15.682Z,344.37
2019-05-07T14:10:43.200Z,335.70
2019-05-07T14:13:15.018Z,379.33
2019-05-07T14:16:02.655Z,351.80
2019-05-07T14:18:30.207Z,343.60
2019-05-07T14:20:57.512Z,342.83
2019-05-07T14:23:26.387Z,359.90
2019-05-07T14:25:54.150Z,354.13
2019-05-07T14:28:23.645Z,374.57
2019-05-07T14:30:52.307Z,336.77
2019-05-07T14:33:38.635Z,325.53
2019-05-07T14:36:11.975Z,313.73
2019-05-07T14:38:44.236Z,309.13
2019-05-07T14:41:12.998Z,330.30
2019-05-07T14:43:46.163Z,318.97
2019-05-07T14:46:13.891Z,333.10
2019-05-07T14:48:41.934Z,311.77
2019-05-07T14:51:12.675Z,293.13
2019-05-07T14:53:40.818Z,317.87
2019-05-07T14:56:08.524Z,294.37
2019-05-07T14:58:36.071Z,298.40
2019-05-07T15:01:03.643Z,314.07
2019-05-07T15:03:31.905Z,295.23
2019-05-07T15:05:59.538Z,280.23
2019-05-07T15:08:27.202Z,284.67
2019-05-07T15:14:52.619Z,372.10
2019-05-07T15:17:32.457Z,346.67
2019-05-07T15:20:00.008Z,304.37
2019-05-07T15:22:49.838Z,318.33
2019-05-07T15:25:16.345Z,334.40
2019-05-07T15:27:45.064Z,328.10
2019-05-07T15:30:13.953Z,289.67
2019-05-07T15:32:42.823Z,309.90
2019-05-07T15:35:12.451Z,307.93
2019-05-07T15:37:39.938Z,308.73
2019-05-07T15:40:08.133Z,288.00
2019-05-07T15:42:35.884Z,301.43
2019-05-07T15:45:03.690Z,345.73
2019-05-07T15:47:37.590Z,331.77
2019-05-07T15:50:06.118Z,329.97
2019-05-07T15:52:58.374Z,337.13
2019-05-07T15:55:25.735Z,356.57
2019-05-07T15:57:53.353Z,319.80
2019-05-07T16:00:23.003Z,356.93
2019-05-07T16:02:55.693Z,315.67
2019-05-07T16:05:23.917Z,305.63
2019-05-07T16:07:52.242Z,292.57
2019-05-07T16:10:20.124Z,338.83
2019-05-07T16:12:48.094Z,324.83
2019-05-07T16:15:16.916Z,329.60
2019-05-07T16:17:49.635Z,336.40
2019-05-07T16:20:17.191Z,363.60
2019-05-07T16:22:48.313Z,313.67
2019-05-07T16:25:15.785Z,323.97
2019-05-07T16:27:43.376Z,342.13
2019-05-07T16:30:14.013Z,308.73
2019-05-07T16:32:42.322Z,311.27
2019-05-07T16:35:12.473Z,342.20
2019-05-07T16:37:39.774Z,328.53
2019-05-07T16:40:07.784Z,345.20
2019-05-07T16:42:38.064Z,304.47
2019-05-07T16:45:06.626Z,331.67
2019-05-07T16:47:34.185Z,352.67
2019-05-07T16:50:04.119Z,370.20
2019-05-07T16:52:35.253Z,328.23
2019-05-07T16:55:05.456Z,375.33
2019-05-07T16:57:59.010Z,366.80
2019-05-07T17:00:48.077Z,316.37
2019-05-07T17:08:22.358Z,376.87
2019-05-07T17:11:08.172Z,330.67
2019-05-07T17:13:39.361Z,300.87
2019-05-07T17:16:07.414Z,338.10
2019-05-07T17:18:34.998Z,365.70
2019-05-07T17:21:03.100Z,360.30
2019-05-07T17:26:48.112Z,318.87
2019-05-07T17:29:15.738Z,411.20
2019-05-07T17:31:43.257Z,335.23
2019-05-07T17:34:11.834Z,377.13
2019-05-07T17:36:41.926Z,307.17
2019-05-07T17:39:09.415Z,368.73
2019-05-07T17:41:38.562Z,374.70
2019-05-07T17:44:06.803Z,396.33
2019-05-07T17:46:34.532Z,328.37
2019-05-07T17:49:02.797Z,382.03
2019-05-07T17:51:52.428Z,362.87
2019-05-07T17:54:19.670Z,383.90
2019-05-07T17:56:47.296Z,331.03
2019-05-07T17:59:15.031Z,377.40
2019-05-07T18:01:55.358Z,364.87
2019-05-07T18:04:23.382Z,431.23
2019-05-07T18:06:52.202Z,360.57
2019-05-07T18:09:19.698Z,335.30
2019-05-07T18:11:47.219Z,340.03
2019-05-07T18:14:14.819Z,378.00
2019-05-07T18:17:15.792Z,314.83
2019-05-07T18:19:45.398Z,379.97
2019-05-07T18:22:12.908Z,377.40
2019-05-07T18:24:41.955Z,369.80
2019-05-07T18:27:13.569Z,336.67
2019-05-07T18:29:42.812Z,343.93
2019-05-07T18:32:12.403Z,335.33
2019-05-07T18:34:39.966Z,421.63
2019-05-07T18:37:07.627Z,341.60
2019-05-07T18:39:35.332Z,393.13
2019-05-07T18:42:03.731Z,359.50
2019-05-07T18:44:32.837Z,416.70
2019-05-07T18:47:02.363Z,335.00
2019-05-07T18:49:30.107Z,389.20
2019-05-07T18:51:58.782Z,317.33
2019-05-07T18:54:30.817Z,388.40
2019-05-07T18:56:55.889Z,348.80
2019-05-07T18:59:25.435Z,364.53
2019-05-07T19:01:52.840Z,319.03
2019-05-07T19:04:21.924Z,401.67
2019-05-07T19:06:51.608Z,335.43
2019-05-07T19:09:18.932Z,364.20
2019-05-07T19:11:46.459Z,345.43
2019-05-07T19:14:14.141Z,389.03
2019-05-07T19:16:43.081Z,357.57
2019-05-07T19:19:12.512Z,462.60
2019-05-07T19:21:42.166Z,330.67
2019-05-07T19:24:09.590Z,383.20
2019-05-07T19:26:37.067Z,357.07
2019-05-07T19:29:05.903Z,393.87
2019-05-07T19:31:33.342Z,307.67
2019-05-07T19:34:02.911Z,377.27
2019-05-07T19:36:32.157Z,414.63
2019-05-07T19:39:01.839Z,348.70
2019-05-07T19:41:32.073Z,357.47
2019-05-07T19:44:01.898Z,365.73
2019-05-07T19:46:30.382Z,385.17
2019-05-07T19:48:57.954Z,399.60
2019-05-07T19:51:25.293Z,396.00
2019-05-07T19:53:53.026Z,396.23
2019-05-07T19:59:49.494Z,322.60
2019-05-07T20:02:22.842Z,395.40
2019-05-07T20:04:52.265Z,395.47
2019-05-07T20:07:20.866Z,414.40
2019-05-07T20:09:49.347Z,432.67
2019-05-07T20:12:17.262Z,347.07
2019-05-07T20:14:45.421Z,441.33
2019-05-07T20:17:13.063Z,396.00
2019-05-07T20:19:41.784Z,414.03
2019-05-07T20:22:09.334Z,395.87
2019-05-07T20:24:37.538Z,406.50
2019-05-07T20:27:05.440Z,390.93
2019-05-07T20:29:32.797Z,381.17
2019-05-07T20:32:00.384Z,353.10
2019-05-07T20:34:28.572Z,422.10
2019-05-07T20:36:56.006Z,393.07
2019-05-07T20:39:23.610Z,392.57
2019-05-07T20:41:52.694Z,376.80
2019-05-07T20:44:21.389Z,424.13
2019-05-07T20:46:49.368Z,428.13
2019-05-07T20:49:16.819Z,448.60
2019-05-07T20:51:44.184Z,387.97
2019-05-07T20:54:24.935Z,402.97
2019-05-07T20:56:58.233Z,376.97
2019-05-07T20:59:26.146Z,393.43
2019-05-07T21:01:53.607Z,394.80
2019-05-07T21:04:24.327Z,412.73
2019-05-07T21:06:55.782Z,369.80
2019-05-07T21:09:25.108Z,384.63
2019-05-07T21:11:56.835Z,354.17
2019-05-07T21:14:26.057Z,436.70
2019-05-07T21:16:53.730Z,378.37
2019-05-07T21:19:22.404Z,404.77
2019-05-07T21:21:50.625Z,378.73
2019-05-07T21:24:19.097Z,402.97
2019-05-07T21:26:47.281Z,366.33
2019-05-07T21:29:15.516Z,392.23
2019-05-07T21:31:43.370Z,410.90
2019-05-07T21:34:12.419Z,407.57
2019-05-07T21:36:40.197Z,386.93
2019-05-07T21:39:07.744Z,411.57
2019-05-07T21:41:35.661Z,383.57
2019-05-07T21:44:03.427Z,423.73
2019-05-07T21:46:32.859Z,394.47
2019-05-07T21:49:03.899Z,380.27
2019-05-07T21:51:31.354Z,401.27
2019-05-07T21:54:05.194Z,415.40
2019-05-07T21:56:40.742Z,352.90
2019-05-07T21:59:12.610Z,416.80
2019-05-07T22:01:48.256Z,352.50
2019-05-07T22:04:15.678Z,438.60
2019-05-07T22:06:45.536Z,370.47
2019-05-07T22:09:13.603Z,428.43
2019-05-07T22:11:42.707Z,432.50
2019-05-07T22:14:12.610Z,416.80
2019-05-07T22:16:39.714Z,357.20
2019-05-07T22:19:07.415Z,435.27
2019-05-07T22:21:34.840Z,379.20
2019-05-07T22:24:02.987Z,418.97
2019-05-07T22:26:32.196Z,375.97
2019-05-07T22:28:59.970Z,396.33
2019-05-07T22:31:56.006Z,381.00
2019-05-07T22:34:31.400Z,431.00
2019-05-07T22:36:59.618Z,376.20
2019-05-07T22:39:44.020Z,454.37
2019-05-07T22:42:13.433Z,385.77
2019-05-07T22:44:42.554Z,382.37
2019-05-07T22:47:18.080Z,398.40
2019-05-07T22:49:48.981Z,445.13
2019-05-07T22:52:16.663Z,390.27
2019-05-07T22:54:44.245Z,429.30
2019-05-07T22:57:22.768Z,383.77
2019-05-07T22:59:49.452Z,412.90
2019-05-07T23:02:17.127Z,400.00
2019-05-07T23:04:44.717Z,440.83
2019-05-07T23:07:12.769Z,400.60
2019-05-07T23:09:41.987Z,402.00
2019-05-07T23:12:09.926Z,400.10
2019-05-07T23:14:37.268Z,409.73
2019-05-07T23:17:05.262Z,378.37
2019-05-07T23:19:32.853Z,423.73
2019-05-07T23:22:02.603Z,383.63
2019-05-07T23:24:31.740Z,399.53
2019-05-07T23:26:58.701Z,412.93
2019-05-07T23:29:27.839Z,393.83
2019-05-07T23:31:55.445Z,367.27
2019-05-07T23:34:23.044Z,396.13
2019-05-07T23:36:53.731Z,360.60
2019-05-07T23:39:23.367Z,434.67
2019-05-07T23:41:58.655Z,382.27
2019-05-07T23:44:29.279Z,411.83
2019-05-07T23:46:57.053Z,352.00
2019-05-07T23:49:25.661Z,404.57
2019-05-07T23:51:53.339Z,366.60
2019-05-07T23:54:23.003Z,400.37
2019-05-07T23:57:02.930Z,336.10
2019-05-07T23:59:19.345Z,393.67
